Página principal
METAR-TAF:

METAR-TAF

Aeroportos :

Koror, Babeldaob, Palau

latitude: 07-22N, longitude: 134-32E, altura: 54 m

Observação actual do tempo

O boletim foi feito há 8 minutos, às 04:50 UTC
Vento 5 kt de este
Temperatura 31°C
Humidade 71%
Pressão 1009 hPa
Visibilidade: 24.1 km
Nuvens dispersasa uma altura de 1600 ft, Cumulonimbus.
Nuvens fragmentadasa uma altura de 12000 ft
Nuvens fragmentadasa uma altura de 30000 ft

METAR: PTRO 230450Z 10005KT 15SM SCT016CB BKN120 BKN300 31/25 A2980 RMK CB NE-SE

Hora: 13:58 (04:58 UTC)

Previsão

O boletim foi feito há 42 minutos, às 04:16 UTC
Previsão válida de 23 às 04 UTC a 23 às 24 UTC
Vento 8 kt de este
Visibilidade: 10 km
Nuvens dispersasa uma altura de 1500 ft
Nuvens fragmentadasa uma altura de 12000 ft
aguaceiros nas vizinhanças
Temporariamente
de 23 às 04 UTC a 23 às 07 UTC
Visibilidade: 6.4 km
Encobertoa uma altura de 1500 ft
aguaceiros de chuva

TAF: PTRO 230416Z 2304/2324 08008KT P6SM VCSH SCT015 BKN120 TEMPO 2304/2307 4SM SHRA OVC015

Observações e previsões do tempo de mais de 4000 aeroportos (mensagens METAR e TAF).

As estações disponíveis são os pontos amarelos e vermelhos sobre o mapa.

Mova o rato sobre o mapa para ver o nome da estação.

Depois clique no ponto para visualizar as observações e previsões meteorológicas.

Para alterar o mapa : clique nos botões verdes com uma cruz preta para aumentar o zoom; no botão verde com uma pitada de zoom; ou nas setas verdes para mapas adjacentes.


METAR-TAF: